CMB813 Details

Departure: Joint Base McGuire Dix Lakehurst (KWRI)
Arrival: RAF Mildenhall (EGUN) at N/A
Notes: USTRANSCOM CONTRACT FLIGHT


Current Weather Information
KWRI 171636Z AUTO 00000KT 10SM FEW031 SCT043 29/22 A3000 RMK AO2 RAB27E36 SLP158 $
EGUN 171656Z 26019G25KT 9999 CLR 22/05 A2961 RMK AO2A PK WND 26026/43 SLPNO T02200054 $